Time;durP1;ratioP1;P1;durP2;ratioP2;P2;SDS_P1;SDS_P2;PMS_P1;PMS_P2;Temp;Humidity;BMP_temperature;BMP_pressure;BME280_temperature;BME280_humidity;BME280_pressure;Samples;Min_cycle;Max_cycle;Signal;HPM_P1;HPM_P2
2023/04/01 00:00:03;;;;;;;5.63;1.90;;;;;;;8.23;100.00;98998.91;5049352;28;20036;-67
2023/04/01 00:02:28;;;;;;;9.88;2.15;;;;;;;8.24;100.00;99001.50;5065480;28;20480;-67
2023/04/01 00:04:53;;;;;;;4.65;1.60;;;;;;;8.23;100.00;98996.34;5068101;28;20427;-67
2023/04/01 00:07:18;;;;;;;8.40;1.85;;;;;;;8.21;100.00;99001.47;5070459;28;20061;-67
2023/04/01 00:09:44;;;;;;;5.45;1.65;;;;;;;8.20;100.00;99004.03;5076942;28;20123;-66
2023/04/01 00:12:09;;;;;;;4.13;1.77;;;;;;;8.19;100.00;99002.28;5079958;28;20020;-66
2023/04/01 00:14:36;;;;;;;5.53;1.80;;;;;;;8.17;100.00;99003.16;5068084;28;20025;-66
2023/04/01 00:17:02;;;;;;;5.53;1.65;;;;;;;8.19;100.00;99004.88;5067337;28;20024;-67
2023/04/01 00:19:27;;;;;;;5.60;1.77;;;;;;;8.20;100.00;99015.25;5077780;28;20529;-67
2023/04/01 00:21:53;;;;;;;3.28;2.22;;;;;;;8.17;100.00;99000.56;5069403;28;20032;-66
2023/04/01 00:24:18;;;;;;;5.07;2.40;;;;;;;8.16;100.00;99009.16;5081875;28;20040;-66
2023/04/01 00:26:44;;;;;;;4.65;1.98;;;;;;;8.16;100.00;99006.59;5068137;28;20249;-66
2023/04/01 00:29:09;;;;;;;6.43;2.28;;;;;;;8.16;100.00;99006.59;5067429;28;20032;-66
2023/04/01 00:31:35;;;;;;;5.25;2.42;;;;;;;8.16;100.00;99004.00;5053220;28;20043;-67
2023/04/01 00:34:00;;;;;;;4.90;2.17;;;;;;;8.13;100.00;99003.09;5068083;28;20056;-66
2023/04/01 00:36:25;;;;;;;4.57;2.35;;;;;;;8.15;100.00;99010.00;5066067;28;20044;-67
2023/04/01 00:38:51;;;;;;;4.93;2.22;;;;;;;8.15;100.00;99007.41;5065395;28;20074;-66
2023/04/01 00:41:19;;;;;;;3.13;2.33;;;;;;;8.15;100.00;99010.00;5064664;28;20028;-67
2023/04/01 00:43:47;;;;;;;4.25;2.35;;;;;;;8.17;100.00;99010.91;5048046;28;20480;-66
2023/04/01 00:46:12;;;;;;;4.35;2.42;;;;;;;8.16;100.00;99011.75;5047583;28;20588;-67
2023/04/01 00:48:41;;;;;;;5.30;2.38;;;;;;;8.18;100.00;99011.78;5047547;28;20112;-66
2023/04/01 00:51:15;;;;;;;5.32;2.33;;;;;;;8.19;100.00;99017.78;5047900;28;20071;-67
2023/04/01 00:53:48;;;;;;;4.95;2.58;;;;;;;8.20;100.00;99025.56;5058443;28;20040;-66
2023/04/01 00:56:19;;;;;;;4.00;2.50;;;;;;;8.17;100.00;99023.78;5068310;28;20078;-66
2023/04/01 00:58:47;;;;;;;;;;;;;;;8.17;100.00;99028.97;5069052;28;20028;-66
2023/04/01 01:01:12;;;;;;;5.25;2.90;;;;;;;8.17;100.00;99031.53;5074425;28;19919;-66
2023/04/01 01:03:38;;;;;;;3.78;2.70;;;;;;;8.16;100.00;99040.13;5088655;28;20028;-66
2023/04/01 01:06:23;;;;;;;4.78;2.83;;;;;;;8.16;100.00;99032.41;5081184;28;20467;-67
2023/04/01 01:09:10;;;;;;;4.05;3.05;;;;;;;8.15;100.00;99033.22;5070688;28;20493;-66
2023/04/01 01:12:10;;;;;;;4.20;2.97;;;;;;;8.15;100.00;99033.22;5075995;28;20033;-66
2023/04/01 01:14:51;;;;;;;4.22;3.60;;;;;;;8.15;100.00;99040.97;5058861;28;20499;-67
2023/04/01 01:17:31;;;;;;;5.18;3.80;;;;;;;8.16;100.00;99045.31;5074261;28;20074;-67
2023/04/01 01:20:06;;;;;;;4.80;3.60;;;;;;;8.15;100.00;99040.09;5074136;28;20021;-66
2023/04/01 01:23:06;;;;;;;5.22;3.95;;;;;;;8.15;100.00;99038.38;5082982;28;20019;-66
2023/04/01 01:25:45;;;;;;;3.83;3.38;;;;;;;8.14;100.00;99046.09;5090453;28;20023;-67
2023/04/01 01:28:33;;;;;;;5.80;3.95;;;;;;;8.14;100.00;99035.78;5087976;28;20020;-66
2023/04/01 01:31:03;;;;;;;4.07;3.75;;;;;;;8.13;100.00;99040.06;5075661;28;20020;-67
2023/04/01 01:33:48;;;;;;;4.47;3.67;;;;;;;8.14;100.00;99043.53;5074187;28;20194;-67
2023/04/01 01:36:15;;;;;;;4.90;4.40;;;;;;;8.15;100.00;99047.84;5100882;28;20027;-66
2023/04/01 01:38:41;;;;;;;4.20;3.80;;;;;;;8.15;100.00;99048.72;5067261;28;20119;-67
2023/04/01 01:41:09;;;;;;;4.63;4.22;;;;;;;8.16;100.00;99044.41;5081020;28;20096;-67
2023/04/01 01:43:44;;;;;;;5.70;5.00;;;;;;;8.16;100.00;99050.47;5067659;28;20569;-66
2023/04/01 01:46:17;;;;;;;5.75;5.25;;;;;;;8.15;100.00;99051.28;5072537;28;20027;-67
2023/04/01 01:48:45;;;;;;;6.63;5.28;;;;;;;8.14;100.00;99053.84;5091299;28;20023;-67
2023/04/01 01:51:10;;;;;;;6.00;5.50;;;;;;;8.15;100.00;99053.88;5091212;28;20469;-66
2023/04/01 01:53:36;;;;;;;6.30;5.70;;;;;;;8.16;100.00;99060.78;5091357;28;20105;-66
2023/04/01 01:56:02;;;;;;;6.78;6.18;;;;;;;8.16;100.00;99059.91;5090506;28;20020;-66
2023/04/01 01:58:40;;;;;;;7.07;6.45;;;;;;;8.19;100.00;99072.84;5091204;28;20024;-66
2023/04/01 02:01:09;;;;;;;7.97;7.28;;;;;;;8.19;100.00;99069.38;5060723;28;20028;-66
2023/04/01 02:03:37;;;;;;;7.50;6.28;;;;;;;8.19;100.00;99070.25;5091297;28;20602;-66
2023/04/01 02:06:05;;;;;;;6.85;6.25;;;;;;;8.17;100.00;99071.94;5090545;28;20441;-66
2023/04/01 02:08:36;;;;;;;7.70;6.90;;;;;;;8.16;100.00;99070.22;5090159;28;20407;-66
2023/04/01 02:11:05;;;;;;;7.82;7.00;;;;;;;8.14;100.00;99072.78;5103341;28;20024;-67
2023/04/01 02:13:45;;;;;;;8.00;7.13;;;;;;;8.13;100.00;99076.19;5090489;28;20027;-66
2023/04/01 02:16:15;;;;;;;8.18;7.47;;;;;;;8.16;100.00;99083.13;5090767;28;20020;-67
2023/04/01 02:18:44;;;;;;;8.20;7.45;;;;;;;8.14;100.00;99087.41;5090805;28;20103;-67
2023/04/01 02:21:10;;;;;;;9.18;7.35;;;;;;;8.13;100.00;99083.94;5090176;28;20444;-67
2023/04/01 02:23:37;;;;;;;9.60;8.25;;;;;;;8.13;100.00;99083.94;5108914;28;20027;-66
2023/04/01 02:26:06;;;;;;;10.90;9.80;;;;;;;8.11;100.00;99083.03;5103109;28;20032;-67
2023/04/01 02:28:34;;;;;;;9.98;8.98;;;;;;;8.10;100.00;99081.31;5102534;28;20018;-67
2023/04/01 02:31:02;;;;;;;10.75;9.63;;;;;;;8.10;100.00;99083.91;5090464;28;20032;-66
2023/04/01 02:33:28;;;;;;;12.77;10.57;;;;;;;8.11;100.00;99087.34;5090266;28;20031;-67
2023/04/01 02:35:54;;;;;;;12.82;11.52;;;;;;;8.09;100.00;99087.34;5090376;28;20035;-66
2023/04/01 02:38:19;;;;;;;14.30;10.68;;;;;;;8.09;100.00;99079.59;5089798;28;20376;-67
2023/04/01 02:40:51;;;;;;;12.75;10.52;;;;;;;8.07;100.00;99083.88;5090618;28;20103;-67
2023/04/01 02:43:18;;;;;;;11.82;9.80;;;;;;;8.07;100.00;99086.44;5076247;28;20181;-66
2023/04/01 02:45:44;;;;;;;12.00;9.90;;;;;;;8.07;100.00;99086.44;5090292;28;20032;-67
2023/04/01 02:48:09;;;;;;;14.98;11.95;;;;;;;8.07;100.00;99091.59;5072259;28;20142;-66
2023/04/01 02:50:35;;;;;;;12.38;11.18;;;;;;;8.06;100.00;99097.59;5069750;28;20389;-67
2023/04/01 02:53:03;;;;;;;14.68;11.27;;;;;;;8.04;100.00;99091.56;5070698;28;20143;-67
2023/04/01 02:55:30;;;;;;;13.70;12.30;;;;;;;8.05;100.00;99095.88;5082453;28;20055;-66
2023/04/01 02:57:55;;;;;;;16.02;12.55;;;;;;;8.03;100.00;99095.84;5070263;28;20024;-67
2023/04/01 03:00:20;;;;;;;16.08;11.95;;;;;;;8.02;100.00;99096.69;5070592;28;20400;-66
2023/04/01 03:02:46;;;;;;;14.70;12.30;;;;;;;8.03;100.00;99105.28;5070048;28;20069;-67
2023/04/01 03:05:12;;;;;;;14.00;11.50;;;;;;;8.01;100.00;99104.41;5082831;28;20442;-67
2023/04/01 03:07:37;;;;;;;15.82;12.95;;;;;;;8.02;100.00;99108.75;5083365;28;20482;-67
2023/04/01 03:10:03;;;;;;;17.15;12.50;;;;;;;8.03;100.00;99105.28;5070207;28;20103;-67
2023/04/01 03:12:28;;;;;;;13.80;11.27;;;;;;;8.01;100.00;99107.84;5069901;28;20104;-66
2023/04/01 03:14:54;;;;;;;14.07;12.02;;;;;;;8.03;100.00;99110.47;5070488;28;20059;-67
2023/04/01 03:17:19;;;;;;;15.10;11.73;;;;;;;8.01;100.00;99107.84;5076308;28;20016;-67
2023/04/01 03:19:44;;;;;;;12.98;10.95;;;;;;;7.99;100.00;99106.97;5076993;28;20877;-66
2023/04/01 03:22:11;;;;;;;14.60;11.00;;;;;;;7.99;100.00;99113.81;5088405;28;20524;-67
2023/04/01 03:24:36;;;;;;;15.10;11.05;;;;;;;7.98;100.00;99128.47;5090566;28;20096;-66
2023/04/01 03:27:01;;;;;;;16.80;11.38;;;;;;;7.95;100.00;99120.66;5072539;28;20091;-66
2023/04/01 03:29:27;;;;;;;12.70;10.48;;;;;;;7.97;100.00;99121.53;5089045;28;20404;-66
2023/04/01 03:31:52;;;;;;;13.80;11.73;;;;;;;7.97;100.00;99121.53;5099595;28;20013;-66
2023/04/01 03:34:17;;;;;;;15.00;11.63;;;;;;;7.97;100.00;99123.28;5079242;28;20051;-66
2023/04/01 03:36:43;;;;;;;14.45;10.48;;;;;;;7.99;100.00;99134.47;5086930;28;20016;-66
2023/04/01 03:39:08;;;;;;;13.60;10.15;;;;;;;7.99;100.00;99129.31;5070015;28;20028;-67
2023/04/01 03:41:36;;;;;;;13.98;11.27;;;;;;;7.97;100.00;99121.53;5069946;28;20024;-67
2023/04/01 03:44:01;;;;;;;13.05;10.98;;;;;;;7.97;100.00;99131.03;5079595;28;20048;-67
2023/04/01 03:46:26;;;;;;;12.90;10.60;;;;;;;7.97;100.00;99133.59;5071841;28;20090;-66
2023/04/01 03:48:51;;;;;;;14.48;10.80;;;;;;;7.96;100.00;99129.25;5069158;28;20083;-67
2023/04/01 03:51:17;;;;;;;11.50;10.27;;;;;;;7.92;100.00;99134.38;5050933;28;20476;-67
2023/04/01 03:53:42;;;;;;;11.90;9.82;;;;;;;7.93;100.00;99136.09;5079827;28;20056;-66
2023/04/01 03:56:08;;;;;;;11.63;10.25;;;;;;;7.92;100.00;99136.09;5071289;28;20021;-66
2023/04/01 03:58:35;;;;;;;10.63;9.45;;;;;;;7.95;100.00;99137.84;5068760;28;20383;-66
2023/04/01 04:01:00;;;;;;;10.32;9.07;;;;;;;7.95;100.00;99143.03;5068347;28;20035;-67
2023/04/01 04:03:26;;;;;;;10.73;9.23;;;;;;;7.95;100.00;99143.03;5068848;28;20473;-67
2023/04/01 04:05:51;;;;;;;11.95;8.93;;;;;;;7.93;100.00;99141.25;5069410;28;20104;-66
2023/04/01 04:08:17;;;;;;;9.77;8.35;;;;;;;7.93;100.00;99149.00;5080467;28;20020;-67
2023/04/01 04:10:43;;;;;;;8.45;7.55;;;;;;;7.95;100.00;99148.19;5069535;28;20499;-66
2023/04/01 04:13:08;;;;;;;8.52;7.63;;;;;;;7.95;100.00;99153.34;5069188;28;20020;-67
2023/04/01 04:15:34;;;;;;;9.70;7.30;;;;;;;7.92;100.00;99159.31;5069468;28;20491;-67
2023/04/01 04:17:59;;;;;;;8.60;6.65;;;;;;;7.91;100.00;99155.00;5068080;28;20342;-67
2023/04/01 04:20:24;;;;;;;8.23;6.90;;;;;;;7.90;100.00;99145.50;5073243;28;20020;-66
2023/04/01 04:22:50;;;;;;;7.63;6.80;;;;;;;7.91;100.00;99163.63;5093655;28;20483;-66
2023/04/01 04:25:15;;;;;;;8.13;7.07;;;;;;;7.90;100.00;99167.00;5078611;28;20078;-67
2023/04/01 04:27:40;;;;;;;8.23;6.82;;;;;;;7.90;100.00;99167.00;5068036;28;20376;-67
2023/04/01 04:30:08;;;;;;;6.25;5.65;;;;;;;7.92;100.00;99165.34;5070983;28;20063;-67
2023/04/01 04:32:34;;;;;;;7.32;6.60;;;;;;;7.92;100.00;99170.50;5080264;28;20058;-66
2023/04/01 04:34:59;;;;;;;6.68;6.00;;;;;;;7.91;100.00;99165.31;5069396;28;20021;-66
2023/04/01 04:37:26;;;;;;;7.82;6.53;;;;;;;7.90;100.00;99172.19;5077224;28;20383;-67
2023/04/01 04:39:51;;;;;;;6.75;6.05;;;;;;;7.90;100.00;99179.91;5086602;28;20114;-66
2023/04/01 04:42:17;;;;;;;6.05;5.45;;;;;;;7.91;100.00;99179.09;5068109;28;20355;-67
2023/04/01 04:44:42;;;;;;;6.47;5.88;;;;;;;7.91;100.00;99176.50;5070817;28;20563;-67
2023/04/01 04:47:07;;;;;;;6.05;5.45;;;;;;;7.92;100.00;99191.13;5079018;28;20035;-67
2023/04/01 04:49:32;;;;;;;5.85;5.25;;;;;;;7.91;100.00;99186.81;5073772;28;20085;-66
2023/04/01 04:51:58;;;;;;;6.00;5.50;;;;;;;7.90;100.00;99185.06;5098862;28;20024;-66
2023/04/01 04:54:23;;;;;;;5.80;5.18;;;;;;;7.90;100.00;99187.66;5098085;28;20052;-67
2023/04/01 04:56:52;;;;;;;6.20;5.60;;;;;;;7.90;100.00;99190.22;5077619;28;20020;-67
2023/04/01 04:59:18;;;;;;;5.53;4.80;;;;;;;7.90;100.00;99192.81;5083840;28;20135;-66
2023/04/01 05:01:43;;;;;;;4.85;4.45;;;;;;;7.89;100.00;99191.09;5068003;28;20123;-67
2023/04/01 05:04:09;;;;;;;5.03;4.53;;;;;;;7.88;100.00;99204.81;5077627;28;20044;-66
2023/04/01 05:06:34;;;;;;;5.63;4.93;;;;;;;7.86;100.00;99206.50;5070955;28;20117;-66
2023/04/01 05:09:00;;;;;;;4.82;4.43;;;;;;;7.84;100.00;99200.47;5058517;28;20411;-66
2023/04/01 05:11:25;;;;;;;5.50;5.00;;;;;;;7.83;100.00;99206.44;5078731;28;20039;-67
2023/04/01 05:13:51;;;;;;;5.18;4.72;;;;;;;7.81;100.00;99203.84;5071956;28;20050;-67
2023/04/01 05:16:19;;;;;;;5.22;4.72;;;;;;;7.81;100.00;99218.44;5083068;28;20031;-67
2023/04/01 05:18:44;;;;;;;5.25;4.32;;;;;;;7.81;100.00;99205.53;5074352;28;20045;-66
2023/04/01 05:21:12;;;;;;;4.88;4.40;;;;;;;7.80;100.00;99224.44;5066503;28;20788;-66
2023/04/01 05:23:38;;;;;;;5.13;4.63;;;;;;;7.80;100.00;99220.16;5083388;28;20112;-66
2023/04/01 05:26:08;;;;;;;6.63;4.93;;;;;;;7.80;100.00;99234.78;5078730;28;20040;-66
2023/04/01 05:28:34;;;;;;;4.63;4.20;;;;;;;7.81;100.00;99228.75;5063145;28;20037;-67
2023/04/01 05:31:00;;;;;;;4.50;4.10;;;;;;;7.80;100.00;99234.78;5066124;28;20779;-67
2023/04/01 05:33:26;;;;;;;5.03;4.63;;;;;;;7.80;100.00;99238.22;5069390;28;20057;-66
2023/04/01 05:35:51;;;;;;;5.63;4.53;;;;;;;7.79;100.00;99236.47;5065193;28;20036;-67
2023/04/01 05:38:16;;;;;;;5.38;4.88;;;;;;;7.78;100.00;99247.63;5066682;28;20059;-67
2023/04/01 05:40:42;;;;;;;5.13;4.63;;;;;;;7.79;100.00;99248.50;5071249;28;20033;-67
2023/04/01 05:43:07;;;;;;;4.50;4.07;;;;;;;7.77;100.00;99247.63;5063920;28;20052;-66
2023/04/01 05:45:32;;;;;;;4.95;4.45;;;;;;;7.77;100.00;99252.78;5069753;28;20036;-67
2023/04/01 05:47:59;;;;;;;4.95;4.55;;;;;;;7.79;100.00;99258.81;5084259;28;20027;-66
2023/04/01 05:50:24;;;;;;;5.03;4.55;;;;;;;7.79;100.00;99266.53;5072003;28;20032;-67
2023/04/01 05:52:49;;;;;;;5.20;4.80;;;;;;;7.81;100.00;99264.84;5073593;28;20097;-67
2023/04/01 05:55:15;;;;;;;6.38;5.55;;;;;;;7.81;100.00;99270.91;5078275;28;20111;-67
2023/04/01 05:57:40;;;;;;;5.68;5.15;;;;;;;7.79;100.00;99271.69;5081013;28;20038;-67
2023/04/01 06:00:06;;;;;;;5.70;5.15;;;;;;;7.77;100.00;99269.09;5071847;28;20530;-67
2023/04/01 06:02:35;;;;;;;5.80;5.22;;;;;;;7.79;100.00;99277.72;5063368;28;20396;-67
2023/04/01 06:05:24;;;;;;;6.25;5.60;;;;;;;7.80;100.00;99281.19;5084953;28;20024;-66
2023/04/01 06:07:57;;;;;;;8.20;6.10;;;;;;;7.80;100.00;99289.81;5051810;28;20341;-67
2023/04/01 06:10:56;;;;;;;8.18;7.38;;;;;;;7.81;100.00;99298.38;5071607;28;20067;-67
2023/04/01 06:13:39;;;;;;;8.23;7.43;;;;;;;7.82;100.00;99305.31;5065853;28;20124;-67
2023/04/01 06:16:23;;;;;;;8.05;7.07;;;;;;;7.83;100.00;99309.59;5080657;28;20082;-66
2023/04/01 06:19:02;;;;;;;8.57;7.78;;;;;;;7.85;100.00;99307.06;5067100;28;20056;-67
2023/04/01 06:22:03;;;;;;;9.35;7.53;;;;;;;7.86;100.00;99317.41;5070024;28;20111;-67
2023/04/01 06:24:42;;;;;;;7.83;7.03;;;;;;;7.86;100.00;99316.53;5076822;28;20035;-66
2023/04/01 06:27:54;;;;;;;8.45;7.20;;;;;;;7.87;100.00;99321.72;5068871;28;20032;-67
2023/04/01 06:30:19;;;;;;;;;;;;;;;7.88;100.00;99323.44;5048041;28;20036;-66
2023/04/01 06:33:12;;;;;;;6.85;6.25;;;;;;;7.91;100.00;99327.81;5081163;28;20003;-67
2023/04/01 06:35:52;;;;;;;8.25;7.40;;;;;;;7.89;100.00;99335.53;5077915;28;20066;-67
2023/04/01 06:38:32;;;;;;;8.45;7.40;;;;;;;7.90;100.00;99336.38;5077162;28;20507;-67
2023/04/01 06:41:15;;;;;;;9.10;7.53;;;;;;;7.91;100.00;99333.84;5081101;28;20043;-67
2023/04/01 06:44:13;;;;;;;8.07;7.28;;;;;;;7.92;100.00;99338.16;5087784;28;20541;-67
2023/04/01 06:47:12;;;;;;;9.35;8.20;;;;;;;7.94;100.00;99343.34;5084791;28;20077;-67
2023/04/01 06:50:12;;;;;;;11.07;8.60;;;;;;;7.95;100.00;99344.22;5051535;28;20121;-67
2023/04/01 06:52:40;;;;;;;11.52;9.52;;;;;;;7.97;100.00;99347.69;5069971;28;20025;-67
2023/04/01 06:55:25;;;;;;;10.65;9.55;;;;;;;7.98;100.00;99344.28;5074850;28;20523;-67
2023/04/01 06:57:55;;;;;;;12.07;10.77;;;;;;;7.99;100.00;99356.31;5069766;28;20043;-67
2023/04/01 07:00:34;;;;;;;13.07;11.23;;;;;;;8.00;100.00;99356.38;5070771;28;20041;-66
2023/04/01 07:03:21;;;;;;;14.88;11.93;;;;;;;8.01;100.00;99364.97;5067995;28;20271;-67
2023/04/01 07:05:47;;;;;;;14.77;13.25;;;;;;;8.04;100.00;99370.19;5073457;28;20432;-67
2023/04/01 07:08:19;;;;;;;17.48;13.50;;;;;;;8.06;100.00;99368.50;5080720;28;20020;-66
2023/04/01 07:10:53;;;;;;;15.73;14.00;;;;;;;8.08;100.00;99374.56;5075384;28;20065;-66
2023/04/01 07:13:24;;;;;;;16.85;14.05;;;;;;;8.11;100.00;99377.19;5073634;28;20036;-67
2023/04/01 07:16:08;;;;;;;17.00;14.60;;;;;;;8.12;100.00;99381.53;5082931;28;20173;-66
2023/04/01 07:18:45;;;;;;;16.80;14.82;;;;;;;8.16;100.00;99379.88;5076573;28;20063;-67
2023/04/01 07:21:35;;;;;;;17.27;15.45;;;;;;;8.18;100.00;99388.50;5079990;28;20031;-66
2023/04/01 07:24:06;;;;;;;18.48;16.40;;;;;;;8.23;100.00;99388.59;5074415;28;20040;-66
2023/04/01 07:26:31;;;;;;;18.40;15.00;;;;;;;8.25;100.00;99394.66;5074326;28;20038;-67
2023/04/01 07:28:57;;;;;;;19.17;16.05;;;;;;;8.26;100.00;99392.09;5073851;28;20020;-67
2023/04/01 07:31:45;;;;;;;18.52;14.40;;;;;;;8.29;100.00;99404.19;5080751;28;20039;-67
2023/04/01 07:34:24;;;;;;;16.25;14.38;;;;;;;8.31;100.00;99404.22;5076376;28;20511;-67
2023/04/01 07:37:03;;;;;;;18.02;15.38;;;;;;;8.33;100.00;99408.56;5074771;28;20032;-67
2023/04/01 07:40:06;;;;;;;17.65;14.82;;;;;;;8.33;100.00;99418.03;5071408;28;20024;-67
2023/04/01 07:42:46;;;;;;;16.45;14.55;;;;;;;8.34;100.00;99415.47;5071618;28;20027;-67
2023/04/01 07:45:42;;;;;;;18.33;14.82;;;;;;;8.37;100.00;99422.38;5079736;28;20107;-67
2023/04/01 07:48:17;;;;;;;18.17;15.35;;;;;;;8.38;100.00;99427.56;5073090;28;20043;-66
2023/04/01 07:51:10;;;;;;;20.38;15.73;;;;;;;8.43;100.00;99435.41;5076799;28;20031;-67
2023/04/01 07:54:00;;;;;;;16.38;14.48;;;;;;;8.46;100.00;99429.44;5068710;28;20259;-67
2023/04/01 07:56:38;;;;;;;19.75;14.25;;;;;;;8.48;100.00;99444.13;5070023;28;20032;-66
2023/04/01 07:59:25;;;;;;;18.92;14.30;;;;;;;8.51;100.00;99440.69;5070276;28;20036;-67
2023/04/01 08:02:02;;;;;;;18.42;14.77;;;;;;;8.52;100.00;99445.94;5083431;28;20124;-67
2023/04/01 08:04:44;;;;;;;18.33;13.82;;;;;;;8.52;100.00;99453.66;5077228;28;20603;-67
2023/04/01 08:07:16;;;;;;;20.77;14.73;;;;;;;8.55;100.00;99446.78;5078188;28;20066;-67
2023/04/01 08:10:08;;;;;;;18.67;14.10;;;;;;;8.59;100.00;99456.38;5074304;28;20024;-67
2023/04/01 08:12:45;;;;;;;19.77;15.20;;;;;;;8.63;100.00;99458.19;5080122;28;20031;-67
2023/04/01 08:15:27;;;;;;;23.92;15.90;;;;;;;8.71;100.00;99463.47;5081181;28;20047;-67
2023/04/01 08:18:04;;;;;;;18.40;14.50;;;;;;;8.76;100.00;99467.88;5085024;28;20023;-67
2023/04/01 08:20:50;;;;;;;17.13;14.15;;;;;;;8.79;100.00;99472.25;5073251;28;20040;-67
2023/04/01 08:23:21;;;;;;;17.48;13.77;;;;;;;8.82;100.00;99479.16;5095201;28;20042;-67
2023/04/01 08:26:05;;;;;;;18.70;14.45;;;;;;;8.80;100.00;99486.88;5089019;28;20028;-67
2023/04/01 08:28:36;;;;;;;20.35;15.75;;;;;;;8.82;100.00;99490.38;5075993;28;20024;-67
2023/04/01 08:31:09;;;;;;;17.33;13.15;;;;;;;8.79;100.00;99485.16;5081267;28;20391;-67
2023/04/01 08:33:36;;;;;;;20.08;14.95;;;;;;;8.82;100.00;99486.91;5075369;28;20034;-67
2023/04/01 08:36:18;;;;;;;18.45;14.55;;;;;;;8.84;100.00;99491.28;5070876;28;20278;-67
2023/04/01 08:38:46;;;;;;;20.00;14.52;;;;;;;8.86;100.00;99486.13;5072585;28;20329;-67
2023/04/01 08:41:45;;;;;;;21.35;14.30;;;;;;;8.88;100.00;99500.81;5073856;28;20110;-67
2023/04/01 08:44:20;;;;;;;15.57;13.98;;;;;;;8.93;100.00;99494.84;5076676;28;20050;-67
2023/04/01 08:47:07;;;;;;;17.10;15.30;;;;;;;8.95;100.00;99512.13;5072601;28;20539;-67
2023/04/01 08:50:06;;;;;;;17.17;14.20;;;;;;;8.96;100.00;99506.09;5086589;28;20412;-67
2023/04/01 08:52:37;;;;;;;15.75;12.75;;;;;;;8.97;100.00;99510.44;5068417;28;20384;-67
2023/04/01 08:55:17;;;;;;;16.42;13.52;;;;;;;8.99;100.00;99518.22;5085447;28;20024;-67
2023/04/01 08:58:01;;;;;;;15.93;12.30;;;;;;;9.00;100.00;99527.69;5086819;28;20028;-67
2023/04/01 09:00:38;;;;;;;13.65;12.05;;;;;;;9.01;100.00;99526.88;5088247;28;20076;-67
2023/04/01 09:03:21;;;;;;;14.75;12.00;;;;;;;9.03;100.00;99532.91;5076318;28;20340;-67
2023/04/01 09:06:02;;;;;;;14.38;12.88;;;;;;;9.04;100.00;99541.53;5105126;28;20023;-67
2023/04/01 09:08:27;;;;;;;12.95;11.57;;;;;;;9.04;100.00;99546.72;5094849;28;20463;-67
2023/04/01 09:11:11;;;;;;;12.10;9.82;;;;;;;9.05;100.00;99553.63;5086567;28;20066;-66
2023/04/01 09:13:42;;;;;;;15.00;11.07;;;;;;;9.05;100.00;99546.72;5089283;28;20032;-67
2023/04/01 09:16:13;;;;;;;14.60;10.98;;;;;;;9.06;100.00;99551.06;5097975;28;20028;-67
2023/04/01 09:18:49;;;;;;;11.57;10.38;;;;;;;9.07;100.00;99550.22;5086616;28;20028;-67
2023/04/01 09:21:42;;;;;;;11.55;10.20;;;;;;;9.12;100.00;99556.34;5088475;28;20152;-67
2023/04/01 09:24:35;;;;;;;13.55;10.52;;;;;;;9.20;100.00;99568.53;5100867;28;20047;-67
2023/04/01 09:27:04;;;;;;;12.38;10.25;;;;;;;9.25;100.00;99565.19;5074290;28;20036;-66
2023/04/01 09:30:03;;;;;;;14.85;10.38;;;;;;;9.30;100.00;99560.06;5082126;28;20470;-66
2023/04/01 09:32:48;;;;;;;12.50;10.52;;;;;;;9.33;100.00;99562.75;5078536;28;20839;-67
2023/04/01 09:35:25;;;;;;;10.38;9.15;;;;;;;9.39;100.00;99568.84;5071913;28;20106;-67
2023/04/01 09:38:16;;;;;;;14.13;11.00;;;;;;;9.46;100.00;99570.69;5078630;28;20031;-67
2023/04/01 09:41:14;;;;;;;11.63;10.10;;;;;;;9.53;100.00;99567.34;5083372;28;20028;-67
2023/04/01 09:44:01;;;;;;;10.40;9.35;;;;;;;9.56;100.00;99574.28;5067843;28;20028;-67
2023/04/01 09:46:31;;;;;;;9.73;8.57;;;;;;;9.60;100.00;99582.13;5078597;28;20051;-67
2023/04/01 09:49:25;;;;;;;8.75;7.97;;;;;;;9.63;100.00;99578.72;5079183;28;20016;-66
2023/04/01 09:52:25;;;;;;;8.27;7.38;;;;;;;9.66;100.00;99580.50;5075019;28;20030;-67
2023/04/01 09:54:50;;;;;;;8.25;7.55;;;;;;;9.69;100.00;99590.88;5081936;28;20043;-67
2023/04/01 09:57:49;;;;;;;10.48;9.48;;;;;;;9.69;100.00;99589.16;5082043;28;20008;-67
2023/04/01 10:00:31;;;;;;;13.07;11.68;;;;;;;9.71;100.00;99594.34;5081724;28;20068;-67
2023/04/01 10:03:54;;;;;;;12.57;11.48;;;;;;;9.72;100.00;99589.19;5074809;28;20028;-67
2023/04/01 10:06:54;;;;;;;12.60;11.43;;;;;;;9.70;100.00;99595.19;5007833;28;20433;-67
2023/04/01 10:09:22;;;;;;;11.50;10.50;;;;;;;9.68;100.00;99594.28;5004627;28;20062;-67
2023/04/01 10:12:05;;;;;;;12.65;11.45;;;;;;;9.68;100.00;99604.63;5066133;28;20032;-67
2023/04/01 10:14:54;;;;;;;11.80;10.60;;;;;;;9.66;100.00;99608.94;5099808;28;20027;-67
2023/04/01 10:17:38;;;;;;;11.23;10.30;;;;;;;9.63;100.00;99607.16;5098770;28;20375;-67
2023/04/01 10:20:27;;;;;;;10.90;9.85;;;;;;;9.64;100.00;99613.22;5096920;28;20077;-67
2023/04/01 10:23:17;;;;;;;11.52;10.45;;;;;;;9.63;100.00;99614.03;5091678;28;20047;-67
2023/04/01 10:26:12;;;;;;;12.02;11.00;;;;;;;9.60;100.00;99626.09;5099363;28;20058;-67
2023/04/01 10:29:02;;;;;;;13.60;11.70;;;;;;;9.56;100.00;99626.88;5096694;28;20038;-67
2023/04/01 10:31:52;;;;;;;12.00;10.75;;;;;;;9.56;100.00;99634.66;5079624;28;20608;-67
2023/04/01 10:34:48;;;;;;;12.48;11.07;;;;;;;9.53;100.00;99629.44;5072789;28;20042;-67
2023/04/01 10:37:39;;;;;;;12.25;11.15;;;;;;;9.51;100.00;99625.94;5082399;28;20028;-67
2023/04/01 10:40:25;;;;;;;14.77;12.35;;;;;;;9.49;100.00;99633.69;5069411;28;20044;-67
2023/04/01 10:43:32;;;;;;;14.63;13.23;;;;;;;9.43;100.00;99645.59;5070130;28;20040;-67
2023/04/01 10:46:45;;;;;;;15.23;13.75;;;;;;;9.42;100.00;99638.72;5083522;28;20127;-67
2023/04/01 10:49:37;;;;;;;16.17;14.20;;;;;;;9.39;100.00;99638.66;5069608;28;20111;-67
2023/04/01 10:52:32;;;;;;;15.43;14.13;;;;;;;9.36;100.00;99642.94;5087558;28;20105;-67
2023/04/01 10:55:34;;;;;;;17.77;16.02;;;;;;;9.37;100.00;99654.16;5074912;28;20043;-67
2023/04/01 10:58:26;;;;;;;15.85;14.38;;;;;;;9.37;100.00;99642.06;5087099;28;20469;-69
2023/04/01 11:01:21;;;;;;;17.75;15.75;;;;;;;9.43;100.00;99655.94;5085564;28;20478;-69
2023/04/01 11:04:06;;;;;;;16.27;14.60;;;;;;;9.48;100.00;99650.03;5088941;28;20024;-68
2023/04/01 11:07:03;;;;;;;15.88;14.27;;;;;;;9.52;100.00;99656.13;5100293;28;20484;-69
2023/04/01 11:09:38;;;;;;;20.52;14.48;;;;;;;9.58;100.00;99657.94;5085703;28;20098;-68
2023/04/01 11:12:21;;;;;;;18.25;14.88;;;;;;;9.63;100.00;99652.84;5092178;28;20024;-67
2023/04/01 11:16:08;;;;;;;32.00;16.15;;;;;;;9.68;100.00;99662.44;5009239;27;20414;-67
2023/04/01 11:18:51;;;;;;;98.90;22.52;;;;;;;9.69;100.00;99673.66;4997134;28;20494;-67
2023/04/01 11:21:55;;;;;;;17.02;15.23;;;;;;;9.70;100.00;99672.78;5002497;28;20494;-68
2023/04/01 11:24:23;;;;;;;17.67;15.05;;;;;;;9.69;100.00;99676.25;4992848;28;20022;-68
2023/04/01 11:27:06;;;;;;;16.80;14.88;;;;;;;9.67;100.00;99672.75;5003662;28;20044;-68
2023/04/01 11:29:50;;;;;;;17.52;15.18;;;;;;;9.67;100.00;99672.75;5004500;28;20607;-68
2023/04/01 11:32:31;;;;;;;17.30;15.63;;;;;;;9.67;100.00;99683.97;4989986;28;20022;-68
2023/04/01 11:35:08;;;;;;;18.17;14.82;;;;;;;9.65;100.00;99685.66;4991501;28;20027;-68
2023/04/01 11:37:49;;;;;;;16.60;14.98;;;;;;;9.63;100.00;99686.47;5002473;28;20022;-68
2023/04/01 11:40:23;;;;;;;15.25;13.65;;;;;;;9.60;100.00;99698.53;4997496;28;20037;-67
2023/04/01 11:43:12;;;;;;;14.27;12.98;;;;;;;9.58;100.00;99695.03;4989955;28;20038;-68
2023/04/01 11:45:53;;;;;;;14.73;13.23;;;;;;;9.56;100.00;99701.00;5004762;28;20030;-68
2023/04/01 11:48:25;;;;;;;;;;;;;;;9.51;100.00;99697.47;4977034;28;20029;-68
2023/04/01 11:51:15;;;;;;;14.52;13.02;;;;;;;9.49;100.00;99706.09;4971365;28;20264;-68
2023/04/01 11:53:58;;;;;;;14.65;13.13;;;;;;;9.52;100.00;99705.25;4980835;28;20122;-67
2023/04/01 11:56:45;;;;;;;14.93;13.63;;;;;;;9.54;100.00;99713.91;4986496;28;20031;-68
2023/04/01 11:59:32;;;;;;;15.23;13.77;;;;;;;9.59;100.00;99722.63;4973298;28;20034;-68
2023/04/01 12:02:34;;;;;;;14.95;13.55;;;;;;;9.63;100.00;99717.50;4970415;28;20045;-67
2023/04/01 12:05:18;;;;;;;15.07;13.68;;;;;;;9.69;100.00;99727.97;4982109;28;20044;-68